Time;durP1;ratioP1;P1;durP2;ratioP2;P2;SDS_P1;SDS_P2;PMS_P1;PMS_P2;Temp;Humidity;BMP_temperature;BMP_pressure;BME280_temperature;BME280_humidity;BME280_pressure;Samples;Min_cycle;Max_cycle;Signal;HPM_P1;HPM_P2
2023/04/17 00:02:03;;;;;;;;;;;;;;;11.27;100.00;98181.19;5023064;28;19929;-83
2023/04/17 00:04:29;;;;;;;;;;;;;;;11.13;100.00;98180.06;4992336;28;19932;-82
2023/04/17 00:06:58;;;;;;;;;;;;;;;11.16;100.00;98177.66;5001818;28;19947;-83
2023/04/17 00:09:24;;;;;;;;;;;;;;;10.99;100.00;98179.69;4996531;28;19929;-85
2023/04/17 00:11:51;;;;;;;;;;;;;;;10.93;100.00;98185.28;5013781;28;19936;-83
2023/04/17 00:14:17;;;;;;;;;;;;;;;10.79;100.00;98180.41;5012641;28;19951;-83
2023/04/17 00:16:43;;;;;;;;;;;;;;;10.85;100.00;98183.91;5005669;28;20015;-82
2023/04/17 00:19:10;;;;;;;;;;;;;;;10.67;100.00;98173.63;4998234;28;19932;-83
2023/04/17 00:21:36;;;;;;;;;;;;;;;10.63;100.00;98181.34;5014143;28;20351;-83
2023/04/17 00:24:04;;;;;;;;;;;;;;;10.58;100.00;98184.00;5012889;28;20533;-82
2023/04/17 00:26:31;;;;;;;;;;;;;;;10.59;100.00;98176.78;5011075;28;19975;-83
2023/04/17 00:28:57;;;;;;;;;;;;;;;10.91;100.00;98176.72;5011989;28;19988;-83
2023/04/17 00:31:23;;;;;;;;;;;;;;;10.97;100.00;98173.00;5013444;28;19947;-84
2023/04/17 00:33:50;;;;;;;;;;;;;;;11.13;100.00;98180.06;5017392;28;19926;-82
2023/04/17 00:36:16;;;;;;;;;;;;;;;11.20;100.00;98169.94;5001188;28;20017;-82
2023/04/17 00:38:43;;;;;;;;;;;;;;;11.21;100.00;98177.69;5018248;28;20020;-83
2023/04/17 00:41:10;;;;;;;;;;;;;;;10.88;100.00;98178.03;5017712;28;20019;-82
2023/04/17 00:43:37;;;;;;;;;;;;;;;10.73;100.00;98177.94;5016408;28;19933;-83
2023/04/17 00:46:04;;;;;;;;;;;;;;;10.46;100.00;98172.66;5016327;28;19925;-83
2023/04/17 00:48:30;;;;;;;;;;;;;;;10.35;100.00;98181.66;5008279;28;20293;-83
2023/04/17 00:51:00;;;;;;;;;;;;;;;10.43;100.00;98178.50;5016162;28;19981;-82
2023/04/17 00:53:27;;;;;;;;;;;;;;;10.48;100.00;98181.25;5006265;28;20579;-83
2023/04/17 00:55:54;;;;;;;;;;;;;;;10.67;100.00;98184.31;5024274;28;19929;-84
2023/04/17 00:58:21;;;;;;;;;;;;;;;10.81;100.00;98183.63;5017489;28;20012;-83
2023/04/17 01:00:48;;;;;;;;;;;;;;;10.99;100.00;98184.25;5020072;28;19929;-83
2023/04/17 01:03:15;;;;;;;;;;;;;;;11.05;100.00;98181.34;5024022;28;20363;-83
2023/04/17 01:05:43;;;;;;;;;;;;;;;10.98;100.00;98174.63;5013215;28;20378;-82
2023/04/17 01:08:09;;;;;;;;;;;;;;;10.66;100.00;98172.84;5011512;28;20363;-83
2023/04/17 01:10:35;;;;;;;;;;;;;;;10.42;100.00;98173.44;5013906;28;19979;-83
2023/04/17 01:13:03;;;;;;;;;;;;;;;10.16;100.00;98175.09;5012587;28;20308;-84
2023/04/17 01:15:30;;;;;;;;;;;;;;;10.20;100.00;98179.69;5026580;28;19934;-83
2023/04/17 01:17:57;;;;;;;;;;;;;;;10.41;100.00;98177.97;5006568;28;19929;-83
2023/04/17 01:20:24;;;;;;;;;;;;;;;10.65;100.00;98181.09;5007495;28;19925;-83
2023/04/17 01:22:50;;;;;;;;;;;;;;;10.81;100.00;98178.28;5011337;28;19925;-83
2023/04/17 01:25:18;;;;;;;;;;;;;;;10.97;100.00;98181.03;5003239;28;19940;-83
2023/04/17 01:27:44;;;;;;;;;;;;;;;11.03;100.00;98182.66;4996473;28;20044;-82
2023/04/17 01:30:11;;;;;;;;;;;;;;;11.08;100.00;98172.03;4997989;28;19992;-83
2023/04/17 01:32:38;;;;;;;;;;;;;;;11.11;100.00;98174.19;5008058;28;20023;-83
2023/04/17 01:35:04;;;;;;;;;;;;;;;10.91;100.00;98177.53;5016972;28;19926;-83
2023/04/17 01:37:31;;;;;;;;;;;;;;;10.77;100.00;98179.84;5011080;28;20566;-83
2023/04/17 01:39:58;;;;;;;;;;;;;;;10.60;100.00;98176.53;5007127;28;20012;-83
2023/04/17 01:42:25;;;;;;;;;;;;;;;10.75;100.00;98184.66;5003460;28;19943;-83
2023/04/17 01:44:52;;;;;;;;;;;;;;;10.80;100.00;98173.97;5005730;28;20435;-82
2023/04/17 01:47:18;;;;;;;;;;;;;;;10.88;100.00;98178.03;5012533;28;19929;-83
2023/04/17 01:49:44;;;;;;;;;;;;;;;10.83;100.00;98170.78;5000445;28;20084;-83
2023/04/17 01:52:11;;;;;;;;;;;;;;;10.79;100.00;98169.72;5015497;28;20031;-82
2023/04/17 01:54:37;;;;;;;;;;;;;;;10.76;100.00;98175.56;5013304;28;20020;-82
2023/04/17 01:57:03;;;;;;;;;;;;;;;10.72;100.00;98182.50;5011963;28;19972;-82
2023/04/17 01:59:31;;;;;;;;;;;;;;;10.67;100.00;98179.78;5018609;28;20278;-83
2023/04/17 02:01:57;;;;;;;;;;;;;;;10.62;100.00;98190.41;5004820;28;19926;-83
2023/04/17 02:04:24;;;;;;;;;;;;;;;10.16;100.00;98183.09;5012025;28;19955;-83
2023/04/17 02:06:50;;;;;;;;;;;;;;;9.90;100.00;98186.56;5026364;28;20284;-83
2023/04/17 02:09:17;;;;;;;;;;;;;;;9.77;100.00;98187.75;5009003;28;20725;-83
2023/04/17 02:11:44;;;;;;;;;;;;;;;9.66;100.00;98183.34;5014815;28;19930;-84
2023/04/17 02:14:10;;;;;;;;;;;;;;;9.65;100.00;98190.59;5012549;28;19961;-85
2023/04/17 02:16:39;;;;;;;;;;;;;;;9.58;100.00;98187.28;5020827;28;19984;-85
2023/04/17 02:19:06;;;;;;;;;;;;;;;9.88;100.00;98194.00;5010299;28;19929;-85
2023/04/17 02:21:32;;;;;;;;;;;;;;;10.04;100.00;98191.25;5021629;28;20151;-84
2023/04/17 02:23:58;;;;;;;;;;;;;;;10.02;100.00;98190.69;5019764;28;19976;-84
2023/04/17 02:26:25;;;;;;;;;;;;;;;9.96;100.00;98186.38;5012399;28;19931;-84
2023/04/17 02:28:51;;;;;;;;;;;;;;;9.92;100.00;98189.78;5013326;28;19987;-85
2023/04/17 02:31:17;;;;;;;;;;;;;;;9.52;100.00;98198.97;5010414;28;19933;-85
2023/04/17 02:33:46;;;;;;;;;;;;;;;9.52;100.00;98192.81;5016949;28;19929;-85
2023/04/17 02:36:12;;;;;;;;;;;;;;;9.21;100.00;98186.31;5013297;28;19932;-86
2023/04/17 02:38:38;;;;;;;;;;;;;;;8.84;100.00;98196.72;5019182;28;19929;-84
2023/04/17 02:41:05;;;;;;;;;;;;;;;8.78;100.00;98189.72;5021203;28;19972;-85
2023/04/17 02:43:31;;;;;;;;;;;;;;;8.74;100.00;98198.41;5022441;28;19932;-85
2023/04/17 02:45:57;;;;;;;;;;;;;;;9.13;100.00;98186.72;5025399;28;20048;-85
2023/04/17 02:48:24;;;;;;;;;;;;;;;8.83;100.00;98195.09;5020908;28;20670;-85
2023/04/17 02:50:52;;;;;;;;;;;;;;;8.75;100.00;98195.53;5016606;28;19929;-83
2023/04/17 02:53:18;;;;;;;;;;;;;;;8.83;100.00;98195.09;5017789;28;19986;-85
2023/04/17 02:55:45;;;;;;;;;;;;;;;9.08;100.00;98189.31;5020969;28;20622;-84
2023/04/17 02:58:12;;;;;;;;;;;;;;;8.94;100.00;98188.88;5007493;28;20024;-85
2023/04/17 03:00:38;;;;;;;;;;;;;;;9.34;100.00;98185.94;5003766;28;19937;-83
2023/04/17 03:03:05;;;;;;;;;;;;;;;9.60;100.00;98179.03;5007945;28;20012;-85
2023/04/17 03:05:31;;;;;;;;;;;;;;;9.85;100.00;98189.97;5008819;28;19926;-83
2023/04/17 03:07:59;;;;;;;;;;;;;;;9.75;100.00;98185.34;5006951;28;19925;-85
2023/04/17 03:10:25;;;;;;;;;;;;;;;9.62;100.00;98185.72;5016974;28;20361;-84
2023/04/17 03:12:52;;;;;;;;;;;;;;;9.08;100.00;98184.00;4996432;28;20011;-85
2023/04/17 03:15:18;;;;;;;;;;;;;;;9.04;100.00;98188.19;5017901;28;19999;-86
2023/04/17 03:17:44;;;;;;;;;;;;;;;9.05;100.00;98184.50;5005485;28;20075;-84
2023/04/17 03:20:11;;;;;;;;;;;;;;;9.29;100.00;98185.06;5012923;28;20029;-84
2023/04/17 03:22:37;;;;;;;;;;;;;;;9.15;100.00;98184.63;4999597;28;20396;-84
2023/04/17 03:25:06;;;;;;;;;;;;;;;8.96;100.00;98185.97;5004972;28;20109;-85
2023/04/17 03:27:32;;;;;;;;;;;;;;;9.03;100.00;98186.59;5017812;28;20036;-85
2023/04/17 03:29:58;;;;;;;;;;;;;;;9.20;100.00;98196.16;5016023;28;20108;-85
2023/04/17 03:32:25;;;;;;;;;;;;;;;8.95;100.00;98206.47;5019822;28;19976;-84
2023/04/17 03:34:51;;;;;;;;;;;;;;;8.72;100.00;98197.88;5030815;28;19926;-83
2023/04/17 03:37:17;;;;;;;;;;;;;;;8.64;100.00;98196.41;5016832;28;19968;-84
2023/04/17 03:39:44;;;;;;;;;;;;;;;8.52;100.00;98207.16;5026108;28;20020;-84
2023/04/17 03:42:13;;;;;;;;;;;;;;;8.48;100.00;98205.22;5027918;28;19992;-85
2023/04/17 03:44:39;;;;;;;;;;;;;;;8.98;100.00;98211.28;5019916;28;19929;-85
2023/04/17 03:47:06;;;;;;;;;;;;;;;8.97;100.00;98201.72;5018618;28;19991;-84
2023/04/17 03:49:32;;;;;;;;;;;;;;;9.02;100.00;98200.97;5018137;28;20008;-85
2023/04/17 03:51:59;;;;;;;;;;;;;;;9.02;100.00;98199.09;5021604;28;19987;-84
2023/04/17 03:54:25;;;;;;;;;;;;;;;9.16;100.00;98208.34;5012630;28;19934;-84
2023/04/17 03:56:51;;;;;;;;;;;;;;;9.01;100.00;98202.00;5021071;28;19994;-85
2023/04/17 03:59:19;;;;;;;;;;;;;;;9.14;100.00;98204.31;5015621;28;20027;-85
2023/04/17 04:01:46;;;;;;;;;;;;;;;9.42;100.00;98203.34;5010302;28;20595;-83
2023/04/17 04:04:12;;;;;;;;;;;;;;;9.69;100.00;98217.53;5018232;28;19945;-84
2023/04/17 04:06:39;;;;;;;;;;;;;;;9.54;100.00;98220.84;5012292;28;19941;-87
2023/04/17 04:09:06;;;;;;;;;;;;;;;9.19;100.00;98217.72;5010325;28;19929;-85
2023/04/17 04:11:32;;;;;;;;;;;;;;;9.06;100.00;98223.41;5024043;28;19972;-85
2023/04/17 04:13:59;;;;;;;;;;;;;;;9.23;100.00;98224.16;5022889;28;19988;-86
2023/04/17 04:16:27;;;;;;;;;;;;;;;9.26;100.00;98239.66;5011697;28;19925;-86
2023/04/17 04:18:53;;;;;;;;;;;;;;;9.29;100.00;98236.50;5022912;28;19936;-85
2023/04/17 04:21:20;;;;;;;;;;;;;;;9.01;100.00;98232.13;5011003;28;19969;-85
2023/04/17 04:23:46;;;;;;;;;;;;;;;8.67;100.00;98231.34;5025866;28;19924;-85
2023/04/17 04:26:12;;;;;;;;;;;;;;;8.27;100.00;98230.66;5023902;28;20095;-85
2023/04/17 04:28:39;;;;;;;;;;;;;;;8.52;100.00;98244.41;5004217;28;19933;-87
2023/04/17 04:31:05;;;;;;;;;;;;;;;8.65;100.00;98238.78;5024243;28;19925;-85
2023/04/17 04:33:34;;;;;;;;;;;;;;;8.50;100.00;98243.88;5003395;28;20514;-86
2023/04/17 04:36:00;;;;;;;;;;;;;;;8.72;100.00;98241.28;5021852;28;19979;-85
2023/04/17 04:38:29;;;;;;;;;;;;;;;8.88;100.00;98235.13;5009435;28;20381;-85
2023/04/17 04:41:00;;;;;;;;;;;;;;;8.87;100.00;98240.69;5012831;28;20120;-85
2023/04/17 04:43:27;;;;;;;;;;;;;;;8.89;100.00;98239.41;5007321;28;20758;-84
2023/04/17 04:45:53;;;;;;;;;;;;;;;9.06;100.00;98247.38;5002210;28;19995;-84
2023/04/17 04:48:20;;;;;;;;;;;;;;;8.98;100.00;98240.59;5008436;28;20028;-84
2023/04/17 04:50:47;;;;;;;;;;;;;;;9.37;100.00;98241.41;5018271;28;19932;-83
2023/04/17 04:53:14;;;;;;;;;;;;;;;9.57;100.00;98239.00;5010777;28;19960;-85
2023/04/17 04:55:40;;;;;;;;;;;;;;;9.55;100.00;98240.31;5019616;28;19929;-84
2023/04/17 04:58:07;;;;;;;;;;;;;;;9.65;100.00;98235.91;5016112;28;21610;-85
2023/04/17 05:00:33;;;;;;;;;;;;;;;9.53;100.00;98239.75;5013690;28;19937;-84
2023/04/17 05:02:59;;;;;;;;;;;;;;;9.52;100.00;98238.94;5021731;28;20008;-85
2023/04/17 05:05:26;;;;;;;;;;;;;;;9.58;100.00;98248.63;5019947;28;19965;-85
2023/04/17 05:07:54;;;;;;;;;;;;;;;9.61;100.00;98247.31;5011791;28;19925;-85
2023/04/17 05:10:21;;;;;;;;;;;;;;;9.64;100.00;98252.97;5018592;28;19929;-85
2023/04/17 05:12:47;;;;;;;;;;;;;;;9.69;100.00;98261.00;5016032;28;19926;-85
2023/04/17 05:15:13;;;;;;;;;;;;;;;9.78;100.00;98251.50;5024863;28;19938;-84
2023/04/17 05:17:40;;;;;;;;;;;;;;;9.90;100.00;98251.41;5019757;28;20044;-84
2023/04/17 05:20:08;;;;;;;;;;;;;;;9.82;100.00;98261.69;5018718;28;19963;-84
2023/04/17 05:22:34;;;;;;;;;;;;;;;9.92;100.00;98254.63;5022419;28;19928;-84
2023/04/17 05:25:02;;;;;;;;;;;;;;;10.01;100.00;98260.31;5016668;28;20012;-85
2023/04/17 05:27:28;;;;;;;;;;;;;;;10.03;100.00;98253.66;5021789;28;19929;-85
2023/04/17 05:29:54;;;;;;;;;;;;;;;9.84;100.00;98259.59;5018301;28;20016;-84
2023/04/17 05:32:21;;;;;;;;;;;;;;;9.63;100.00;98262.00;5019762;28;19929;-84
2023/04/17 05:34:47;;;;;;;;;;;;;;;9.43;100.00;98266.28;5022553;28;19963;-85
2023/04/17 05:37:14;;;;;;;;;;;;;;;9.61;100.00;98272.13;5020422;28;19971;-85
2023/04/17 05:39:40;;;;;;;;;;;;;;;9.64;100.00;98270.81;5020053;28;19929;-84
2023/04/17 05:42:08;;;;;;;;;;;;;;;9.83;100.00;98271.31;5014691;28;20024;-84
2023/04/17 05:44:34;;;;;;;;;;;;;;;9.91;100.00;98273.53;5016060;28;20015;-85
2023/04/17 05:47:00;;;;;;;;;;;;;;;9.73;100.00;98267.47;5027296;28;19996;-85
2023/04/17 05:49:27;;;;;;;;;;;;;;;9.74;100.00;98261.09;5015919;28;20463;-84
2023/04/17 05:51:53;;;;;;;;;;;;;;;9.84;100.00;98267.59;5021600;28;20348;-85
2023/04/17 05:54:20;;;;;;;;;;;;;;;9.80;100.00;98266.47;5010406;28;20016;-83
2023/04/17 05:56:48;;;;;;;;;;;;;;;10.01;100.00;98261.13;5009792;28;20024;-83
2023/04/17 05:59:16;;;;;;;;;;;;;;;10.10;100.00;98259.59;4992819;28;19934;-83
2023/04/17 06:01:42;;;;;;;;;;;;;;;10.10;100.00;98274.81;5004646;28;20361;-82
2023/04/17 06:04:08;;;;;;;;;;;;;;;10.12;100.00;98259.38;5004148;28;20636;-82
2023/04/17 06:06:35;;;;;;;;;;;;;;;10.26;100.00;98260.59;5019944;28;19931;-83
2023/04/17 06:09:03;;;;;;;;;;;;;;;10.37;100.00;98267.63;5021322;28;20560;-83
2023/04/17 06:11:29;;;;;;;;;;;;;;;10.30;100.00;98267.84;5009994;28;19925;-83
2023/04/17 06:13:56;;;;;;;;;;;;;;;10.29;100.00;98260.91;4993492;28;20047;-83
2023/04/17 06:16:24;;;;;;;;;;;;;;;10.37;100.00;98266.84;4997036;28;19933;-81
2023/04/17 06:18:50;;;;;;;;;;;;;;;10.40;100.00;98272.47;5006856;28;19925;-82
2023/04/17 06:21:17;;;;;;;;;;;;;;;10.42;100.00;98261.56;5008050;28;20412;-83
2023/04/17 06:23:43;;;;;;;;;;;;;;;10.27;100.00;98275.56;5012862;28;20024;-82
2023/04/17 06:26:11;;;;;;;;;;;;;;;10.15;100.00;98270.34;5016419;28;19987;-86
2023/04/17 06:28:37;;;;;;;;;;;;;;;10.04;100.00;98273.16;5018093;28;19995;-86
2023/04/17 06:31:04;;;;;;;;;;;;;;;9.81;100.00;98276.09;5016401;28;19929;-84
2023/04/17 06:33:31;;;;;;;;;;;;;;;9.92;100.00;98275.97;5019797;28;20546;-85
2023/04/17 06:35:58;;;;;;;;;;;;;;;10.07;100.00;98268.13;5016690;28;19929;-84
2023/04/17 06:38:24;;;;;;;;;;;;;;;10.28;100.00;98264.63;5004370;28;20023;-84
2023/04/17 06:40:50;;;;;;;;;;;;;;;10.46;100.00;98266.13;5018496;28;19959;-84
2023/04/17 06:43:17;;;;;;;;;;;;;;;10.76;100.00;98274.41;5020532;28;19925;-83
2023/04/17 06:45:43;;;;;;;;;;;;;;;10.77;100.00;98268.00;5018728;28;19927;-85
2023/04/17 06:48:10;;;;;;;;;;;;;;;10.88;100.00;98268.06;5011620;28;20012;-85
2023/04/17 06:50:38;;;;;;;;;;;;;;;11.18;100.00;98268.28;5014057;28;20337;-87
2023/04/17 06:53:04;;;;;;;;;;;;;;;11.49;100.00;98270.06;5018257;28;19925;-85
2023/04/17 06:55:31;;;;;;;;;;;;;;;11.61;100.00;98267.19;5015047;28;19929;-83
2023/04/17 06:57:57;;;;;;;;;;;;;;;11.63;100.00;98271.22;5014449;28;20008;-85
2023/04/17 07:00:23;;;;;;;;;;;;;;;11.84;100.00;98269.47;5018874;28;19960;-85
2023/04/17 07:02:50;;;;;;;;;;;;;;;12.12;100.00;98277.06;5016626;28;19932;-84
2023/04/17 07:05:16;;;;;;;;;;;;;;;12.33;100.00;98285.94;5005437;28;19925;-85
2023/04/17 07:07:44;;;;;;;;;;;;;;;12.13;100.00;98278.66;5004845;28;19932;-85
2023/04/17 07:10:11;;;;;;;;;;;;;;;11.73;100.00;98287.34;5019919;28;19929;-85
2023/04/17 07:12:37;;;;;;;;;;;;;;;11.99;100.00;98295.47;5010404;28;19930;-85
2023/04/17 07:15:04;;;;;;;;;;;;;;;12.32;100.00;98295.03;5003325;28;20211;-85
2023/04/17 07:17:30;;;;;;;;;;;;;;;12.47;100.00;98289.72;5018691;28;20028;-85
2023/04/17 07:19:56;;;;;;;;;;;;;;;12.64;100.00;98284.91;5004547;28;19935;-86
2023/04/17 07:22:23;;;;;;;;;;;;;;;12.67;100.00;98289.75;5019495;28;19964;-86
2023/04/17 07:24:51;;;;;;;;;;;;;;;12.14;100.00;98298.19;5003733;28;19972;-83
2023/04/17 07:27:17;;;;;;;;;;;;;;;12.41;100.00;98290.75;5019061;28;20016;-84
2023/04/17 07:29:45;;;;;;;;;;;;;;;11.89;100.00;98298.91;5006530;28;19929;-84
2023/04/17 07:32:12;;;;;;;;;;;;;;;11.91;100.00;98305.59;5007724;28;20445;-87
2023/04/17 07:34:40;;;;;;;;;;;;;;;11.61;100.00;98310.78;5002234;28;20015;-84
2023/04/17 07:37:06;;;;;;;;;;;;;;;11.37;100.00;98315.75;5007225;28;20026;-84
2023/04/17 07:39:32;;;;;;;;;;;;;;;11.22;100.00;98321.00;5020000;28;19948;-83
2023/04/17 07:42:01;;;;;;;;;;;;;;;11.10;100.00;98309.69;5015102;28;20583;-86
2023/04/17 07:44:28;;;;;;;;;;;;;;;11.07;100.00;98310.19;5020625;28;21693;-83
2023/04/17 07:46:54;;;;;;;;;;;;;;;11.29;100.00;98310.09;5003974;28;19974;-84
2023/04/17 07:49:21;;;;;;;;;;;;;;;11.31;100.00;98311.44;5011723;28;20032;-85
2023/04/17 07:51:47;;;;;;;;;;;;;;;11.30;100.00;98311.66;5013408;28;20052;-86
2023/04/17 07:54:13;;;;;;;;;;;;;;;11.24;100.00;98308.16;5009409;28;19933;-84
2023/04/17 07:56:40;;;;;;;;;;;;;;;11.41;100.00;98313.38;5007941;28;20024;-88
2023/04/17 07:59:08;;;;;;;;;;;;;;;11.52;100.00;98316.88;5021552;28;19983;-84
2023/04/17 08:01:34;;;;;;;;;;;;;;;11.58;100.00;98313.19;5018306;28;19933;-84
2023/04/17 08:04:01;;;;;;;;;;;;;;;11.54;100.00;98315.59;5021171;28;19929;-83
2023/04/17 08:06:27;;;;;;;;;;;;;;;11.75;100.00;98320.00;5015147;28;20539;-83
2023/04/17 08:08:53;;;;;;;;;;;;;;;11.70;100.00;98314.63;5005988;28;19929;-84
2023/04/17 08:11:20;;;;;;;;;;;;;;;11.61;100.00;98313.47;5018130;28;20040;-85
2023/04/17 08:13:46;;;;;;;;;;;;;;;11.61;100.00;98316.16;5024216;28;19936;-84
2023/04/17 08:16:14;;;;;;;;;;;;;;;11.65;100.00;98319.91;5023562;28;19968;-85
2023/04/17 08:18:40;;;;;;;;;;;;;;;11.78;100.00;98316.81;5014686;28;20084;-84
2023/04/17 08:21:07;;;;;;;;;;;;;;;11.83;100.00;98324.03;5024299;28;19934;-83
2023/04/17 08:23:34;;;;;;;;;;;;;;;11.86;100.00;98326.19;5015896;28;19924;-83
2023/04/17 08:26:00;;;;;;;;;;;;;;;11.82;100.00;98331.25;5020604;28;19929;-83
2023/04/17 08:28:27;;;;;;;;;;;;;;;11.83;100.00;98332.88;5020118;28;20504;-82
2023/04/17 08:30:54;;;;;;;;;;;;;;;11.90;100.00;98322.75;5016535;28;20548;-83
2023/04/17 08:33:21;;;;;;;;;;;;;;;11.85;100.00;98332.63;5023068;28;19929;-83
2023/04/17 08:35:48;;;;;;;;;;;;;;;11.77;100.00;98333.13;5015587;28;19976;-80
2023/04/17 08:38:14;;;;;;;;;;;;;;;11.89;100.00;98329.16;5022202;28;19971;-83
2023/04/17 08:40:42;;;;;;;;;;;;;;;11.90;100.00;98336.13;5017584;28;20069;-84
2023/04/17 08:43:13;;;;;;;;;;;;;;;11.90;100.00;98333.47;5015391;28;19929;-83
2023/04/17 08:45:40;;;;;;;;;;;;;;;11.86;100.00;98323.53;5016493;28;19933;-83
2023/04/17 08:48:06;;;;;;;;;;;;;;;11.97;100.00;98319.03;5015925;28;19955;-83
2023/04/17 08:50:34;;;;;;;;;;;;;;;11.91;100.00;98324.34;5010625;28;19925;-83
2023/04/17 08:53:00;;;;;;;;;;;;;;;11.84;100.00;98321.13;5022655;28;19925;-82
2023/04/17 08:55:28;;;;;;;;;;;;;;;11.89;100.00;98325.69;5010019;28;19947;-84
2023/04/17 08:57:56;;;;;;;;;;;;;;;11.97;100.00;98325.19;5004219;28;20009;-83
2023/04/17 09:00:26;;;;;;;;;;;;;;;12.02;100.00;98321.72;5003491;28;19925;-82
2023/04/17 09:02:53;;;;;;;;;;;;;;;12.09;100.00;98327.63;5007793;28;20622;-83
2023/04/17 09:05:20;;;;;;;;;;;;;;;12.18;100.00;98320.72;5018725;28;20000;-85
2023/04/17 09:07:48;;;;;;;;;;;;;;;12.26;100.00;98321.00;5009226;28;19936;-84
2023/04/17 09:10:15;;;;;;;;;;;;;;;12.27;100.00;98327.97;5015329;28;19971;-81
2023/04/17 09:12:41;;;;;;;;;;;;;;;12.20;100.00;98318.56;5004195;28;19976;-83
2023/04/17 09:15:14;;;;;;;;;;;;;;;12.29;100.00;98322.34;5005466;28;19952;-83
2023/04/17 09:17:41;;;;;;;;;;;;;;;12.25;100.00;98318.59;5001848;28;19933;-82
2023/04/17 09:20:08;;;;;;;;;;;;;;;12.50;100.00;98312.50;5013872;28;19935;-83
2023/04/17 09:22:35;;;;;;;;;;;;;;;12.63;100.00;98304.72;5008517;28;20619;-83
2023/04/17 09:25:04;;;;;;;;;;;;;;;12.80;100.00;98304.50;5009666;28;19936;-83
2023/04/17 09:27:30;;;;;;;;;;;;;;;12.78;100.00;98301.28;5014999;28;20419;-83
2023/04/17 09:29:58;;;;;;;;;;;;;;;12.68;100.00;98294.03;5015219;28;19929;-83
2023/04/17 09:32:25;;;;;;;;;;;;;;;12.71;100.00;98304.22;5014308;28;19925;-84
2023/04/17 09:34:52;;;;;;;;;;;;;;;12.68;100.00;98298.59;5019262;28;19952;-83
2023/04/17 09:37:18;;;;;;;;;;;;;;;12.55;100.00;98302.59;5016692;28;19967;-83
2023/04/17 09:39:55;;;;;;;;;;;;;;;12.64;100.00;98292.94;5023747;28;19929;-84
2023/04/17 09:42:23;;;;;;;;;;;;;;;12.66;100.00;98298.03;5018771;28;19975;-84
2023/04/17 09:44:49;;;;;;;;;;;;;;;12.62;100.00;98289.75;5018464;28;19959;-83
2023/04/17 09:47:17;;;;;;;;;;;;;;;12.82;100.00;98297.78;5017250;28;20025;-84
2023/04/17 09:49:48;;;;;;;;;;;;;;;12.85;100.00;98302.59;5010408;28;19929;-85
2023/04/17 09:52:15;;;;;;;;;;;;;;;14.33;100.00;98293.13;5028525;28;19932;-82
2023/04/17 09:54:42;;;;;;;;;;;;;;;15.19;100.00;98290.63;5014717;28;19944;-84
2023/04/17 09:57:09;;;;;;;;;;;;;;;15.51;100.00;98290.06;5026330;28;19925;-84
2023/04/17 09:59:38;;;;;;;;;;;;;;;15.84;100.00;98291.88;5015003;28;20012;-83
2023/04/17 10:02:07;;;;;;;;;;;;;;;15.97;100.00;98283.06;5016522;28;19936;-86
2023/04/17 10:04:33;;;;;;;;;;;;;;;15.99;100.00;98294.38;5015306;28;20016;-84
2023/04/17 10:07:01;;;;;;;;;;;;;;;16.22;100.00;98283.84;5010914;28;19936;-83
2023/04/17 10:09:28;;;;;;;;;;;;;;;16.38;100.00;98279.81;5011480;28;19925;-84
2023/04/17 10:11:56;;;;;;;;;;;;;;;16.22;100.00;98289.25;5009580;28;20028;-84
2023/04/17 10:14:24;;;;;;;;;;;;;;;16.09;100.00;98285.34;5006155;28;20303;-84
2023/04/17 10:16:53;;;;;;;;;;;;;;;16.03;100.00;98287.28;5008567;28;19925;-85
2023/04/17 10:19:29;;;;;;;;;;;;;;;15.72;100.00;98285.28;5016180;28;20416;-83
2023/04/17 10:22:26;;;;;;;;;;;;;;;14.73;100.00;98271.38;5003990;28;19991;-84
2023/04/17 10:25:13;;;;;;;;;;;;;;;13.95;100.00;98279.34;5003282;28;19929;-84
2023/04/17 10:27:45;;;;;;;;;;;;;;;14.84;100.00;98272.91;5001929;28;20431;-83
2023/04/17 10:30:12;;;;;;;;;;;;;;;15.57;100.00;98276.25;4995587;28;19933;-79
2023/04/17 10:32:38;;;;;;;;;;;;;;;15.71;100.00;98281.78;5005690;28;20024;-79
2023/04/17 10:35:33;;;;;;;;;;;;;;;15.87;100.00;98275.13;5017874;28;20478;-79
2023/04/17 10:38:03;;;;;;;;;;;;;;;16.01;100.00;98276.00;5011979;28;20312;-79
2023/04/17 10:40:30;;;;;;;;;;;;;;;16.15;100.00;98276.91;5000535;28;20626;-78
2023/04/17 10:43:07;;;;;;;;;;;;;;;16.31;100.00;98272.09;5004333;28;20027;-78
2023/04/17 10:45:53;;;;;;;;;;;;;;;16.42;100.00;98264.69;5008665;28;20391;-77
2023/04/17 10:48:20;;;;;;;;;;;;;;;16.53;100.00;98272.31;5018537;28;20582;-76
2023/04/17 10:50:46;;;;;;;;;;;;;;;16.72;100.00;98262.34;5019441;28;19932;-78
2023/04/17 10:53:27;;;;;;;;;;;;;;;16.93;100.00;98254.72;5013764;28;19929;-78
2023/04/17 10:55:56;;;;;;;;;;;;;;;16.42;100.00;98267.38;5015354;28;20447;-79
2023/04/17 10:58:24;;;;;;;;;;;;;;;16.19;100.00;98267.16;5012164;28;19925;-79
2023/04/17 11:00:51;;;;;;;;;;;;;;;16.38;100.00;98267.16;5012346;28;20320;-77
2023/04/17 11:03:18;;;;;;;;;;;;;;;16.58;100.00;98258.81;5018779;28;19936;-78
2023/04/17 11:05:44;;;;;;;;;;;;;;;16.60;100.00;98263.91;5022396;28;19925;-78
2023/04/17 11:08:11;;;;;;;;;;;;;;;16.69;100.00;98256.75;5020581;28;19999;-78
2023/04/17 11:10:37;;;;;;;;;;;;;;;16.77;100.00;98252.59;5016413;28;19960;-77
2023/04/17 11:13:04;;;;;;;;;;;;;;;16.80;100.00;98252.81;5016979;28;19936;-77
2023/04/17 11:15:33;;;;;;;;;;;;;;;16.87;100.00;98255.09;5013481;28;19933;-79
2023/04/17 11:18:00;;;;;;;;;;;;;;;16.96;100.00;98251.44;5004703;28;19937;-76
2023/04/17 11:20:28;;;;;;;;;;;;;;;16.96;100.00;98256.06;5007864;28;19953;-79
2023/04/17 11:22:55;;;;;;;;;;;;;;;17.00;100.00;98244.38;5018252;28;19925;-78
2023/04/17 11:25:22;;;;;;;;;;;;;;;17.07;100.00;98244.78;5014406;28;19937;-77
2023/04/17 11:27:52;;;;;;;;;;;;;;;16.81;100.00;98240.09;5016738;28;19929;-78
2023/04/17 11:30:26;;;;;;;;;;;;;;;16.28;100.00;98243.03;5017563;28;19925;-78
2023/04/17 11:32:53;;;;;;;;;;;;;;;15.81;100.00;98238.56;5018213;28;19929;-78
2023/04/17 11:35:24;;;;;;;;;;;;;;;15.41;100.00;98242.47;5014802;28;19929;-79
2023/04/17 11:38:10;;;;;;;;;;;;;;;15.20;100.00;98242.97;5011763;28;19963;-77
2023/04/17 11:40:36;;;;;;;;;;;;;;;14.92;100.00;98258.03;4996328;28;19925;-79
2023/04/17 11:43:05;;;;;;;;;;;;;;;14.71;100.00;98251.22;4993977;28;19925;-79
2023/04/17 11:45:32;;;;;;;;;;;;;;;14.63;100.00;98247.28;5010116;28;19931;-79
2023/04/17 11:48:01;;;;;;;;;;;;;;;14.52;100.00;98259.16;5007648;28;19925;-79
2023/04/17 11:50:28;;;;;;;;;;;;;;;14.22;100.00;98254.75;5005292;28;19937;-79
2023/04/17 11:52:55;;;;;;;;;;;;;;;13.93;100.00;98262.69;5009416;28;20412;-78
2023/04/17 11:55:22;;;;;;;;;;;;;;;14.00;100.00;98267.78;5005307;28;19934;-77
2023/04/17 11:57:51;;;;;;;;;;;;;;;13.94;100.00;98269.69;5012167;28;20389;-80
2023/04/17 12:00:18;;;;;;;;;;;;;;;13.71;100.00;98267.63;5018116;28;19929;-78
2023/04/17 12:02:45;;;;;;;;;;;;;;;13.71;100.00;98270.31;5014851;28;20024;-79
2023/04/17 12:05:16;;;;;;;;;;;;;;;13.75;100.00;98282.09;5012719;28;19981;-79
2023/04/17 12:07:42;;;;;;;;;;;;;;;13.65;100.00;98275.97;5010261;28;20411;-78
2023/04/17 12:10:09;;;;;;;;;;;;;;;13.52;100.00;98280.06;5010997;28;20284;-77
2023/04/17 12:12:36;;;;;;;;;;;;;;;13.30;100.00;98279.56;5015076;28;20837;-79
2023/04/17 12:15:02;;;;;;;;;;;;;;;13.24;100.00;98289.50;5010115;28;19933;-78
2023/04/17 12:17:29;;;;;;;;;;;;;;;13.19;100.00;98286.81;5013946;28;19929;-79
2023/04/17 12:19:55;;;;;;;;;;;;;;;13.37;100.00;98282.75;5006079;28;19963;-79
2023/04/17 12:22:23;;;;;;;;;;;;;;;13.46;100.00;98281.91;5007729;28;20095;-78
2023/04/17 12:24:50;;;;;;;;;;;;;;;13.46;100.00;98286.50;5008346;28;19940;-77
2023/04/17 12:27:16;;;;;;;;;;;;;;;13.38;100.00;98293.22;5009510;28;19933;-78
2023/04/17 12:29:42;;;;;;;;;;;;;;;13.27;100.00;98288.16;5009985;28;19960;-78
2023/04/17 12:32:10;;;;;;;;;;;;;;;13.36;100.00;98286.53;5009354;28;19933;-78
2023/04/17 12:34:36;;;;;;;;;;;;;;;13.43;100.00;98293.19;4990446;28;19986;-78
2023/04/17 12:37:02;;;;;;;;;;;;;;;13.37;100.00;98288.09;4995545;28;19964;-77
2023/04/17 12:39:31;;;;;;;;;;;;;;;13.31;100.00;98291.88;4993187;28;19929;-77
2023/04/17 12:41:57;;;;;;;;;;;;;;;13.48;100.00;98284.34;5011757;28;19929;-78